sensor_id;sensor_type;location;lat;lon;timestamp;P1;durP1;ratioP1;P2;durP2;ratioP2
38379;SDS011;38377;47.418;18.882;2023-02-15T00:01:54;36.17;;;20.17;;
38379;SDS011;38377;47.418;18.882;2023-02-15T00:04:21;33.53;;;19.13;;
38379;SDS011;38377;47.418;18.882;2023-02-15T00:06:48;34.20;;;18.93;;
38379;SDS011;38377;47.418;18.882;2023-02-15T00:09:14;36.20;;;20.30;;
38379;SDS011;38377;47.418;18.882;2023-02-15T00:11:40;34.43;;;19.07;;
38379;SDS011;38377;47.418;18.882;2023-02-15T00:14:22;32.50;;;18.77;;
38379;SDS011;38377;47.418;18.882;2023-02-15T00:16:50;33.10;;;19.47;;
38379;SDS011;38377;47.418;18.882;2023-02-15T00:19:17;30.17;;;18.40;;
38379;SDS011;38377;47.418;18.882;2023-02-15T00:21:46;37.13;;;18.83;;
38379;SDS011;38377;47.418;18.882;2023-02-15T00:24:14;33.40;;;19.80;;
38379;SDS011;38377;47.418;18.882;2023-02-15T00:26:41;30.87;;;18.77;;
38379;SDS011;38377;47.418;18.882;2023-02-15T00:29:08;32.17;;;18.33;;
38379;SDS011;38377;47.418;18.882;2023-02-15T00:31:35;32.50;;;17.67;;
38379;SDS011;38377;47.418;18.882;2023-02-15T00:34:23;30.27;;;18.20;;
38379;SDS011;38377;47.418;18.882;2023-02-15T00:36:49;29.50;;;16.70;;
38379;SDS011;38377;47.418;18.882;2023-02-15T00:39:15;31.03;;;18.77;;
38379;SDS011;38377;47.418;18.882;2023-02-15T00:41:42;33.53;;;18.83;;
38379;SDS011;38377;47.418;18.882;2023-02-15T00:44:08;31.30;;;16.70;;
38379;SDS011;38377;47.418;18.882;2023-02-15T00:46:34;29.07;;;18.13;;
38379;SDS011;38377;47.418;18.882;2023-02-15T00:49:01;35.27;;;19.73;;
38379;SDS011;38377;47.418;18.882;2023-02-15T00:51:27;33.43;;;18.10;;
38379;SDS011;38377;47.418;18.882;2023-02-15T00:53:53;34.07;;;19.63;;
38379;SDS011;38377;47.418;18.882;2023-02-15T00:56:18;32.60;;;17.93;;
38379;SDS011;38377;47.418;18.882;2023-02-15T00:58:44;36.17;;;20.03;;
38379;SDS011;38377;47.418;18.882;2023-02-15T01:01:11;32.27;;;17.00;;
38379;SDS011;38377;47.418;18.882;2023-02-15T01:03:38;34.23;;;19.53;;
38379;SDS011;38377;47.418;18.882;2023-02-15T01:06:06;35.10;;;18.57;;
38379;SDS011;38377;47.418;18.882;2023-02-15T01:08:33;34.33;;;18.37;;
38379;SDS011;38377;47.418;18.882;2023-02-15T01:11:05;38.30;;;20.23;;
38379;SDS011;38377;47.418;18.882;2023-02-15T01:13:33;36.77;;;20.17;;
38379;SDS011;38377;47.418;18.882;2023-02-15T01:15:59;38.43;;;19.77;;
38379;SDS011;38377;47.418;18.882;2023-02-15T01:18:25;35.73;;;20.33;;
38379;SDS011;38377;47.418;18.882;2023-02-15T01:20:51;37.73;;;17.53;;
38379;SDS011;38377;47.418;18.882;2023-02-15T01:23:17;34.17;;;18.13;;
38379;SDS011;38377;47.418;18.882;2023-02-15T01:25:43;35.90;;;20.00;;
38379;SDS011;38377;47.418;18.882;2023-02-15T01:28:09;34.27;;;18.73;;
38379;SDS011;38377;47.418;18.882;2023-02-15T01:30:35;34.33;;;18.63;;
38379;SDS011;38377;47.418;18.882;2023-02-15T01:33:01;32.93;;;18.30;;
38379;SDS011;38377;47.418;18.882;2023-02-15T01:35:27;35.47;;;19.20;;
38379;SDS011;38377;47.418;18.882;2023-02-15T01:37:53;34.20;;;19.53;;
38379;SDS011;38377;47.418;18.882;2023-02-15T01:40:20;34.60;;;19.87;;
38379;SDS011;38377;47.418;18.882;2023-02-15T01:42:49;33.57;;;18.00;;
38379;SDS011;38377;47.418;18.882;2023-02-15T01:52:59;36.77;;;18.47;;
38379;SDS011;38377;47.418;18.882;2023-02-15T01:55:36;34.03;;;18.27;;
38379;SDS011;38377;47.418;18.882;2023-02-15T02:00:49;35.23;;;17.97;;
38379;SDS011;38377;47.418;18.882;2023-02-15T02:03:15;34.83;;;18.17;;
38379;SDS011;38377;47.418;18.882;2023-02-15T02:05:41;35.50;;;19.60;;
38379;SDS011;38377;47.418;18.882;2023-02-15T02:08:07;35.17;;;18.13;;
38379;SDS011;38377;47.418;18.882;2023-02-15T02:10:36;32.47;;;18.07;;
38379;SDS011;38377;47.418;18.882;2023-02-15T02:13:03;33.43;;;17.20;;
38379;SDS011;38377;47.418;18.882;2023-02-15T02:15:33;32.97;;;18.03;;
38379;SDS011;38377;47.418;18.882;2023-02-15T02:18:17;33.90;;;18.43;;
38379;SDS011;38377;47.418;18.882;2023-02-15T02:34:33;37.03;;;19.80;;
38379;SDS011;38377;47.418;18.882;2023-02-15T02:37:30;34.27;;;18.27;;
38379;SDS011;38377;47.418;18.882;2023-02-15T02:45:06;35.00;;;19.53;;
38379;SDS011;38377;47.418;18.882;2023-02-15T02:47:48;37.87;;;19.87;;
38379;SDS011;38377;47.418;18.882;2023-02-15T02:50:20;35.03;;;18.87;;
38379;SDS011;38377;47.418;18.882;2023-02-15T02:52:50;34.93;;;19.33;;
38379;SDS011;38377;47.418;18.882;2023-02-15T02:58:09;35.83;;;18.57;;
38379;SDS011;38377;47.418;18.882;2023-02-15T03:00:40;34.10;;;18.07;;
38379;SDS011;38377;47.418;18.882;2023-02-15T03:03:14;34.60;;;20.17;;
38379;SDS011;38377;47.418;18.882;2023-02-15T03:05:57;36.13;;;20.13;;
38379;SDS011;38377;47.418;18.882;2023-02-15T03:08:29;38.50;;;19.93;;
38379;SDS011;38377;47.418;18.882;2023-02-15T03:11:04;33.63;;;19.23;;
38379;SDS011;38377;47.418;18.882;2023-02-15T03:13:30;35.00;;;18.93;;
38379;SDS011;38377;47.418;18.882;2023-02-15T03:15:58;38.53;;;20.50;;
38379;SDS011;38377;47.418;18.882;2023-02-15T03:18:45;34.87;;;18.30;;
38379;SDS011;38377;47.418;18.882;2023-02-15T03:21:27;33.13;;;19.07;;
38379;SDS011;38377;47.418;18.882;2023-02-15T03:24:00;34.43;;;18.53;;
38379;SDS011;38377;47.418;18.882;2023-02-15T03:26:32;31.27;;;17.70;;
38379;SDS011;38377;47.418;18.882;2023-02-15T03:28:59;33.53;;;18.67;;
38379;SDS011;38377;47.418;18.882;2023-02-15T03:31:28;35.37;;;19.57;;
38379;SDS011;38377;47.418;18.882;2023-02-15T03:33:59;35.27;;;18.13;;
38379;SDS011;38377;47.418;18.882;2023-02-15T03:42:13;35.00;;;20.17;;
38379;SDS011;38377;47.418;18.882;2023-02-15T03:44:49;38.90;;;18.97;;
38379;SDS011;38377;47.418;18.882;2023-02-15T03:47:35;33.38;;;18.92;;
38379;SDS011;38377;47.418;18.882;2023-02-15T03:50:05;34.60;;;18.30;;
38379;SDS011;38377;47.418;18.882;2023-02-15T03:52:55;38.50;;;18.90;;
38379;SDS011;38377;47.418;18.882;2023-02-15T03:55:23;36.13;;;18.93;;
38379;SDS011;38377;47.418;18.882;2023-02-15T03:57:49;41.53;;;18.83;;
38379;SDS011;38377;47.418;18.882;2023-02-15T04:00:34;36.13;;;18.63;;
38379;SDS011;38377;47.418;18.882;2023-02-15T04:03:23;35.97;;;18.87;;
38379;SDS011;38377;47.418;18.882;2023-02-15T04:05:56;38.07;;;18.63;;
38379;SDS011;38377;47.418;18.882;2023-02-15T04:08:21;38.27;;;19.30;;
38379;SDS011;38377;47.418;18.882;2023-02-15T04:11:07;35.27;;;18.27;;
38379;SDS011;38377;47.418;18.882;2023-02-15T04:13:33;37.97;;;19.33;;
38379;SDS011;38377;47.418;18.882;2023-02-15T04:15:59;41.43;;;19.37;;
38379;SDS011;38377;47.418;18.882;2023-02-15T04:18:37;35.87;;;20.10;;
38379;SDS011;38377;47.418;18.882;2023-02-15T04:21:25;41.73;;;21.60;;
38379;SDS011;38377;47.418;18.882;2023-02-15T04:24:10;35.20;;;17.90;;
38379;SDS011;38377;47.418;18.882;2023-02-15T04:26:55;38.40;;;19.60;;
38379;SDS011;38377;47.418;18.882;2023-02-15T04:29:21;36.47;;;19.97;;
38379;SDS011;38377;47.418;18.882;2023-02-15T04:31:48;35.83;;;18.77;;
38379;SDS011;38377;47.418;18.882;2023-02-15T04:34:15;41.30;;;20.67;;
38379;SDS011;38377;47.418;18.882;2023-02-15T04:36:41;37.20;;;19.17;;
38379;SDS011;38377;47.418;18.882;2023-02-15T04:39:07;39.43;;;20.73;;
38379;SDS011;38377;47.418;18.882;2023-02-15T04:41:33;35.63;;;17.43;;
38379;SDS011;38377;47.418;18.882;2023-02-15T04:43:59;39.37;;;21.03;;
38379;SDS011;38377;47.418;18.882;2023-02-15T04:46:26;36.70;;;19.87;;
38379;SDS011;38377;47.418;18.882;2023-02-15T04:48:52;34.60;;;18.37;;
38379;SDS011;38377;47.418;18.882;2023-02-15T04:51:18;37.10;;;19.10;;
38379;SDS011;38377;47.418;18.882;2023-02-15T04:53:44;37.77;;;19.87;;
38379;SDS011;38377;47.418;18.882;2023-02-15T04:56:10;36.20;;;19.27;;
38379;SDS011;38377;47.418;18.882;2023-02-15T04:58:35;34.10;;;19.20;;
38379;SDS011;38377;47.418;18.882;2023-02-15T05:01:02;38.97;;;19.60;;
38379;SDS011;38377;47.418;18.882;2023-02-15T05:03:27;38.20;;;20.63;;
38379;SDS011;38377;47.418;18.882;2023-02-15T05:05:53;36.53;;;19.70;;
38379;SDS011;38377;47.418;18.882;2023-02-15T05:08:19;38.57;;;20.93;;
38379;SDS011;38377;47.418;18.882;2023-02-15T05:10:47;34.93;;;18.07;;
38379;SDS011;38377;47.418;18.882;2023-02-15T05:13:13;37.00;;;19.77;;
38379;SDS011;38377;47.418;18.882;2023-02-15T05:15:39;35.73;;;18.77;;
38379;SDS011;38377;47.418;18.882;2023-02-15T05:18:05;34.27;;;17.83;;
38379;SDS011;38377;47.418;18.882;2023-02-15T05:20:32;38.10;;;19.93;;
38379;SDS011;38377;47.418;18.882;2023-02-15T05:22:58;38.27;;;19.17;;
38379;SDS011;38377;47.418;18.882;2023-02-15T05:25:23;38.03;;;19.37;;
38379;SDS011;38377;47.418;18.882;2023-02-15T05:28:11;37.30;;;20.67;;
38379;SDS011;38377;47.418;18.882;2023-02-15T05:30:49;36.20;;;19.17;;
38379;SDS011;38377;47.418;18.882;2023-02-15T05:33:21;34.87;;;18.67;;
38379;SDS011;38377;47.418;18.882;2023-02-15T05:35:47;35.63;;;18.87;;
38379;SDS011;38377;47.418;18.882;2023-02-15T05:38:13;39.57;;;19.00;;
38379;SDS011;38377;47.418;18.882;2023-02-15T05:40:38;39.93;;;18.80;;
38379;SDS011;38377;47.418;18.882;2023-02-15T05:43:05;39.33;;;19.93;;
38379;SDS011;38377;47.418;18.882;2023-02-15T05:45:31;41.20;;;20.93;;
38379;SDS011;38377;47.418;18.882;2023-02-15T05:47:56;37.53;;;20.33;;
38379;SDS011;38377;47.418;18.882;2023-02-15T05:50:23;37.53;;;20.30;;
38379;SDS011;38377;47.418;18.882;2023-02-15T05:52:49;35.70;;;19.07;;
38379;SDS011;38377;47.418;18.882;2023-02-15T05:55:16;41.40;;;20.07;;
38379;SDS011;38377;47.418;18.882;2023-02-15T05:57:42;42.20;;;20.30;;
38379;SDS011;38377;47.418;18.882;2023-02-15T06:00:08;38.00;;;20.47;;
38379;SDS011;38377;47.418;18.882;2023-02-15T06:02:35;37.33;;;19.87;;
38379;SDS011;38377;47.418;18.882;2023-02-15T06:05:02;40.90;;;20.60;;
38379;SDS011;38377;47.418;18.882;2023-02-15T06:07:29;36.27;;;19.80;;
38379;SDS011;38377;47.418;18.882;2023-02-15T06:09:55;37.67;;;20.20;;
38379;SDS011;38377;47.418;18.882;2023-02-15T06:12:21;43.20;;;21.67;;
38379;SDS011;38377;47.418;18.882;2023-02-15T06:14:46;45.80;;;22.07;;
38379;SDS011;38377;47.418;18.882;2023-02-15T06:17:12;43.20;;;22.43;;
38379;SDS011;38377;47.418;18.882;2023-02-15T06:19:38;41.13;;;22.20;;
38379;SDS011;38377;47.418;18.882;2023-02-15T06:22:03;37.00;;;19.30;;
38379;SDS011;38377;47.418;18.882;2023-02-15T06:24:29;46.13;;;20.27;;
38379;SDS011;38377;47.418;18.882;2023-02-15T06:26:55;36.33;;;21.27;;
38379;SDS011;38377;47.418;18.882;2023-02-15T06:29:20;40.57;;;22.50;;
38379;SDS011;38377;47.418;18.882;2023-02-15T06:31:46;37.00;;;20.30;;
38379;SDS011;38377;47.418;18.882;2023-02-15T06:34:12;39.37;;;22.43;;
38379;SDS011;38377;47.418;18.882;2023-02-15T06:36:37;36.67;;;20.97;;
38379;SDS011;38377;47.418;18.882;2023-02-15T06:39:03;37.07;;;21.87;;
38379;SDS011;38377;47.418;18.882;2023-02-15T06:41:29;42.30;;;21.37;;
38379;SDS011;38377;47.418;18.882;2023-02-15T06:43:54;39.17;;;21.20;;
38379;SDS011;38377;47.418;18.882;2023-02-15T06:46:20;36.27;;;20.57;;
38379;SDS011;38377;47.418;18.882;2023-02-15T06:48:46;39.47;;;22.73;;
38379;SDS011;38377;47.418;18.882;2023-02-15T06:51:12;49.67;;;25.27;;
38379;SDS011;38377;47.418;18.882;2023-02-15T06:53:37;43.30;;;23.17;;
38379;SDS011;38377;47.418;18.882;2023-02-15T06:56:06;40.60;;;22.67;;
38379;SDS011;38377;47.418;18.882;2023-02-15T06:58:34;43.30;;;24.57;;
38379;SDS011;38377;47.418;18.882;2023-02-15T07:01:04;43.20;;;24.63;;
38379;SDS011;38377;47.418;18.882;2023-02-15T07:03:30;47.93;;;25.30;;
38379;SDS011;38377;47.418;18.882;2023-02-15T07:05:56;47.67;;;26.87;;
38379;SDS011;38377;47.418;18.882;2023-02-15T07:08:23;45.83;;;26.27;;
38379;SDS011;38377;47.418;18.882;2023-02-15T07:10:50;49.00;;;26.43;;
38379;SDS011;38377;47.418;18.882;2023-02-15T07:13:16;48.67;;;26.90;;
38379;SDS011;38377;47.418;18.882;2023-02-15T07:15:43;53.50;;;30.00;;
38379;SDS011;38377;47.418;18.882;2023-02-15T07:18:09;52.40;;;27.27;;
38379;SDS011;38377;47.418;18.882;2023-02-15T07:20:38;54.47;;;31.30;;
38379;SDS011;38377;47.418;18.882;2023-02-15T07:23:06;56.80;;;32.43;;
38379;SDS011;38377;47.418;18.882;2023-02-15T07:25:33;57.83;;;31.70;;
38379;SDS011;38377;47.418;18.882;2023-02-15T07:28:00;54.10;;;32.03;;
38379;SDS011;38377;47.418;18.882;2023-02-15T07:30:28;50.67;;;29.97;;
38379;SDS011;38377;47.418;18.882;2023-02-15T07:32:55;45.10;;;26.77;;
38379;SDS011;38377;47.418;18.882;2023-02-15T07:35:46;52.63;;;29.80;;
38379;SDS011;38377;47.418;18.882;2023-02-15T07:38:23;48.70;;;29.07;;
38379;SDS011;38377;47.418;18.882;2023-02-15T07:40:58;52.13;;;31.50;;
38379;SDS011;38377;47.418;18.882;2023-02-15T07:43:24;47.95;;;28.13;;
38379;SDS011;38377;47.418;18.882;2023-02-15T07:45:50;43.23;;;25.03;;
38379;SDS011;38377;47.418;18.882;2023-02-15T07:48:16;44.50;;;27.33;;
38379;SDS011;38377;47.418;18.882;2023-02-15T07:50:42;44.80;;;26.77;;
38379;SDS011;38377;47.418;18.882;2023-02-15T07:53:08;34.70;;;21.40;;
38379;SDS011;38377;47.418;18.882;2023-02-15T07:55:34;33.23;;;20.90;;
38379;SDS011;38377;47.418;18.882;2023-02-15T07:57:59;42.47;;;23.60;;
38379;SDS011;38377;47.418;18.882;2023-02-15T08:00:25;46.20;;;27.40;;
38379;SDS011;38377;47.418;18.882;2023-02-15T08:02:52;45.90;;;27.43;;
38379;SDS011;38377;47.418;18.882;2023-02-15T08:05:46;41.40;;;23.57;;
38379;SDS011;38377;47.418;18.882;2023-02-15T08:08:11;39.80;;;25.00;;
38379;SDS011;38377;47.418;18.882;2023-02-15T08:11:04;33.95;;;19.88;;
38379;SDS011;38377;47.418;18.882;2023-02-15T08:16:28;35.00;;;21.13;;
38379;SDS011;38377;47.418;18.882;2023-02-15T08:19:02;31.70;;;19.53;;
38379;SDS011;38377;47.418;18.882;2023-02-15T08:21:37;32.70;;;20.23;;
38379;SDS011;38377;47.418;18.882;2023-02-15T08:24:05;30.53;;;19.63;;
38379;SDS011;38377;47.418;18.882;2023-02-15T08:26:32;34.77;;;21.70;;
38379;SDS011;38377;47.418;18.882;2023-02-15T08:28:59;28.85;;;18.58;;
38379;SDS011;38377;47.418;18.882;2023-02-15T08:31:25;32.33;;;20.10;;
38379;SDS011;38377;47.418;18.882;2023-02-15T08:33:52;32.77;;;18.90;;
38379;SDS011;38377;47.418;18.882;2023-02-15T08:36:20;31.25;;;18.55;;
38379;SDS011;38377;47.418;18.882;2023-02-15T08:38:47;33.27;;;21.13;;
38379;SDS011;38377;47.418;18.882;2023-02-15T08:43:47;31.90;;;20.33;;
38379;SDS011;38377;47.418;18.882;2023-02-15T08:46:16;33.22;;;21.48;;
38379;SDS011;38377;47.418;18.882;2023-02-15T08:48:42;33.50;;;19.98;;
38379;SDS011;38377;47.418;18.882;2023-02-15T08:51:10;34.35;;;22.67;;
38379;SDS011;38377;47.418;18.882;2023-02-15T08:53:42;34.97;;;22.65;;
38379;SDS011;38377;47.418;18.882;2023-02-15T08:56:14;48.40;;;28.00;;
38379;SDS011;38377;47.418;18.882;2023-02-15T08:58:40;44.42;;;26.70;;
38379;SDS011;38377;47.418;18.882;2023-02-15T09:01:10;53.35;;;32.85;;
38379;SDS011;38377;47.418;18.882;2023-02-15T09:03:46;50.80;;;31.65;;
38379;SDS011;38377;47.418;18.882;2023-02-15T09:06:16;52.03;;;32.00;;
38379;SDS011;38377;47.418;18.882;2023-02-15T09:08:45;46.55;;;29.70;;
38379;SDS011;38377;47.418;18.882;2023-02-15T09:11:12;49.55;;;30.83;;
38379;SDS011;38377;47.418;18.882;2023-02-15T09:16:26;52.00;;;31.85;;
38379;SDS011;38377;47.418;18.882;2023-02-15T09:18:54;56.03;;;32.65;;
38379;SDS011;38377;47.418;18.882;2023-02-15T09:21:23;39.72;;;26.55;;
38379;SDS011;38377;47.418;18.882;2023-02-15T09:23:50;44.88;;;29.70;;
38379;SDS011;38377;47.418;18.882;2023-02-15T09:26:21;52.27;;;31.97;;
38379;SDS011;38377;47.418;18.882;2023-02-15T09:28:48;47.35;;;30.45;;
38379;SDS011;38377;47.418;18.882;2023-02-15T09:31:19;45.47;;;28.15;;
38379;SDS011;38377;47.418;18.882;2023-02-15T09:33:46;44.33;;;28.05;;
38379;SDS011;38377;47.418;18.882;2023-02-15T09:36:16;40.10;;;26.10;;
38379;SDS011;38377;47.418;18.882;2023-02-15T09:38:43;39.78;;;25.58;;
38379;SDS011;38377;47.418;18.882;2023-02-15T09:41:24;48.22;;;30.83;;
38379;SDS011;38377;47.418;18.882;2023-02-15T09:49:15;55.63;;;32.92;;
38379;SDS011;38377;47.418;18.882;2023-02-15T09:51:52;51.17;;;32.13;;
38379;SDS011;38377;47.418;18.882;2023-02-15T09:54:50;52.00;;;33.15;;
38379;SDS011;38377;47.418;18.882;2023-02-15T09:57:28;53.88;;;34.38;;
38379;SDS011;38377;47.418;18.882;2023-02-15T10:17:52;40.38;;;25.65;;
38379;SDS011;38377;47.418;18.882;2023-02-15T10:58:16;27.45;;;18.65;;
38379;SDS011;38377;47.418;18.882;2023-02-15T11:01:02;29.70;;;18.77;;
38379;SDS011;38377;47.418;18.882;2023-02-15T11:06:31;30.98;;;18.27;;
38379;SDS011;38377;47.418;18.882;2023-02-15T11:09:01;30.40;;;18.40;;
38379;SDS011;38377;47.418;18.882;2023-02-15T11:11:39;27.38;;;17.70;;
38379;SDS011;38377;47.418;18.882;2023-02-15T11:16:54;26.50;;;17.63;;
38379;SDS011;38377;47.418;18.882;2023-02-15T11:19:34;33.45;;;16.88;;
38379;SDS011;38377;47.418;18.882;2023-02-15T11:22:04;24.77;;;16.65;;
38379;SDS011;38377;47.418;18.882;2023-02-15T11:24:32;26.52;;;15.82;;
38379;SDS011;38377;47.418;18.882;2023-02-15T11:27:04;27.40;;;16.50;;
38379;SDS011;38377;47.418;18.882;2023-02-15T11:32:39;25.88;;;16.73;;
38379;SDS011;38377;47.418;18.882;2023-02-15T11:37:40;26.17;;;15.57;;
38379;SDS011;38377;47.418;18.882;2023-02-15T11:40:22;25.52;;;16.10;;
38379;SDS011;38377;47.418;18.882;2023-02-15T11:42:52;24.23;;;16.85;;
38379;SDS011;38377;47.418;18.882;2023-02-15T11:47:55;25.25;;;17.83;;
38379;SDS011;38377;47.418;18.882;2023-02-15T11:50:28;27.63;;;17.75;;
38379;SDS011;38377;47.418;18.882;2023-02-15T11:53:00;27.35;;;17.35;;
38379;SDS011;38377;47.418;18.882;2023-02-15T11:55:29;26.73;;;18.10;;
38379;SDS011;38377;47.418;18.882;2023-02-15T12:00:43;27.58;;;18.45;;
38379;SDS011;38377;47.418;18.882;2023-02-15T12:03:22;32.05;;;19.50;;
38379;SDS011;38377;47.418;18.882;2023-02-15T12:05:57;30.58;;;19.23;;
38379;SDS011;38377;47.418;18.882;2023-02-15T12:08:29;29.30;;;18.27;;
38379;SDS011;38377;47.418;18.882;2023-02-15T12:11:09;27.33;;;17.95;;
38379;SDS011;38377;47.418;18.882;2023-02-15T12:13:59;30.38;;;18.80;;
38379;SDS011;38377;47.418;18.882;2023-02-15T12:16:28;27.20;;;18.38;;
38379;SDS011;38377;47.418;18.882;2023-02-15T12:18:57;27.17;;;18.08;;
38379;SDS011;38377;47.418;18.882;2023-02-15T12:21:29;27.80;;;18.25;;
38379;SDS011;38377;47.418;18.882;2023-02-15T12:24:00;33.17;;;19.90;;
38379;SDS011;38377;47.418;18.882;2023-02-15T12:29:27;31.15;;;19.73;;
38379;SDS011;38377;47.418;18.882;2023-02-15T12:31:55;31.83;;;20.08;;
38379;SDS011;38377;47.418;18.882;2023-02-15T12:34:25;25.70;;;18.67;;
38379;SDS011;38377;47.418;18.882;2023-02-15T12:36:57;33.35;;;21.90;;
38379;SDS011;38377;47.418;18.882;2023-02-15T12:39:29;30.63;;;19.48;;
38379;SDS011;38377;47.418;18.882;2023-02-15T12:42:14;28.98;;;18.25;;
38379;SDS011;38377;47.418;18.882;2023-02-15T12:44:52;26.50;;;17.48;;
38379;SDS011;38377;47.418;18.882;2023-02-15T12:47:29;29.13;;;19.30;;
38379;SDS011;38377;47.418;18.882;2023-02-15T12:50:12;31.50;;;19.60;;
38379;SDS011;38377;47.418;18.882;2023-02-15T12:52:47;30.27;;;18.92;;
38379;SDS011;38377;47.418;18.882;2023-02-15T12:55:23;28.05;;;18.88;;
38379;SDS011;38377;47.418;18.882;2023-02-15T13:03:34;29.02;;;17.73;;
38379;SDS011;38377;47.418;18.882;2023-02-15T13:06:02;27.95;;;16.65;;
38379;SDS011;38377;47.418;18.882;2023-02-15T13:08:33;26.02;;;16.98;;
38379;SDS011;38377;47.418;18.882;2023-02-15T13:11:06;24.10;;;16.38;;
38379;SDS011;38377;47.418;18.882;2023-02-15T13:13:59;26.83;;;16.80;;
38379;SDS011;38377;47.418;18.882;2023-02-15T13:16:31;23.70;;;16.23;;
38379;SDS011;38377;47.418;18.882;2023-02-15T13:19:02;28.60;;;16.98;;
38379;SDS011;38377;47.418;18.882;2023-02-15T13:21:32;25.55;;;16.63;;
38379;SDS011;38377;47.418;18.882;2023-02-15T13:26:53;22.95;;;15.60;;
38379;SDS011;38377;47.418;18.882;2023-02-15T13:29:22;22.27;;;16.25;;
38379;SDS011;38377;47.418;18.882;2023-02-15T13:34:22;24.63;;;16.40;;
38379;SDS011;38377;47.418;18.882;2023-02-15T13:37:05;25.25;;;17.50;;
38379;SDS011;38377;47.418;18.882;2023-02-15T13:42:30;31.60;;;18.38;;
38379;SDS011;38377;47.418;18.882;2023-02-15T13:53:13;27.35;;;18.25;;
38379;SDS011;38377;47.418;18.882;2023-02-15T13:56:07;27.17;;;17.42;;
38379;SDS011;38377;47.418;18.882;2023-02-15T13:59:00;27.63;;;18.40;;
38379;SDS011;38377;47.418;18.882;2023-02-15T14:01:45;30.02;;;18.65;;
38379;SDS011;38377;47.418;18.882;2023-02-15T14:04:36;28.00;;;18.65;;
38379;SDS011;38377;47.418;18.882;2023-02-15T14:10:19;29.80;;;19.20;;
38379;SDS011;38377;47.418;18.882;2023-02-15T14:18:22;34.50;;;20.52;;
38379;SDS011;38377;47.418;18.882;2023-02-15T14:32:33;28.75;;;18.35;;
38379;SDS011;38377;47.418;18.882;2023-02-15T14:35:15;31.45;;;19.35;;
38379;SDS011;38377;47.418;18.882;2023-02-15T14:49:32;32.75;;;19.38;;
38379;SDS011;38377;47.418;18.882;2023-02-15T14:52:04;28.92;;;18.67;;
38379;SDS011;38377;47.418;18.882;2023-02-15T14:59:37;28.67;;;19.00;;
38379;SDS011;38377;47.418;18.882;2023-02-15T15:04:33;30.02;;;18.70;;
38379;SDS011;38377;47.418;18.882;2023-02-15T15:07:37;31.63;;;18.55;;
38379;SDS011;38377;47.418;18.882;2023-02-15T15:10:07;34.22;;;19.70;;
38379;SDS011;38377;47.418;18.882;2023-02-15T15:12:52;27.23;;;18.02;;
38379;SDS011;38377;47.418;18.882;2023-02-15T15:18:09;30.65;;;19.02;;
38379;SDS011;38377;47.418;18.882;2023-02-15T15:20:55;28.15;;;19.38;;
38379;SDS011;38377;47.418;18.882;2023-02-15T15:33:53;32.42;;;19.90;;
38379;SDS011;38377;47.418;18.882;2023-02-15T15:37:05;32.75;;;20.55;;
38379;SDS011;38377;47.418;18.882;2023-02-15T15:42:48;29.52;;;19.15;;
38379;SDS011;38377;47.418;18.882;2023-02-15T15:50:53;35.63;;;22.58;;
38379;SDS011;38377;47.418;18.882;2023-02-15T15:53:25;43.38;;;23.60;;
38379;SDS011;38377;47.418;18.882;2023-02-15T15:56:04;45.47;;;25.50;;
38379;SDS011;38377;47.418;18.882;2023-02-15T15:58:33;46.70;;;26.08;;
38379;SDS011;38377;47.418;18.882;2023-02-15T16:01:07;40.08;;;24.58;;
38379;SDS011;38377;47.418;18.882;2023-02-15T16:03:34;43.38;;;26.13;;
38379;SDS011;38377;47.418;18.882;2023-02-15T16:06:01;44.42;;;26.80;;
38379;SDS011;38377;47.418;18.882;2023-02-15T16:08:34;45.38;;;26.20;;
38379;SDS011;38377;47.418;18.882;2023-02-15T16:11:09;44.65;;;27.10;;
38379;SDS011;38377;47.418;18.882;2023-02-15T16:13:44;46.10;;;28.00;;
38379;SDS011;38377;47.418;18.882;2023-02-15T16:16:11;44.05;;;27.25;;
38379;SDS011;38377;47.418;18.882;2023-02-15T16:18:38;51.15;;;28.67;;
38379;SDS011;38377;47.418;18.882;2023-02-15T16:21:29;47.80;;;27.98;;
38379;SDS011;38377;47.418;18.882;2023-02-15T16:29:32;43.35;;;26.80;;
38379;SDS011;38377;47.418;18.882;2023-02-15T16:32:18;43.07;;;27.43;;
38379;SDS011;38377;47.418;18.882;2023-02-15T16:34:57;44.95;;;27.20;;
38379;SDS011;38377;47.418;18.882;2023-02-15T16:37:27;43.87;;;26.93;;
38379;SDS011;38377;47.418;18.882;2023-02-15T16:39:58;48.90;;;28.50;;
38379;SDS011;38377;47.418;18.882;2023-02-15T16:42:24;51.08;;;29.35;;
38379;SDS011;38377;47.418;18.882;2023-02-15T16:45:06;47.53;;;29.43;;
38379;SDS011;38377;47.418;18.882;2023-02-15T16:47:42;48.37;;;28.93;;
38379;SDS011;38377;47.418;18.882;2023-02-15T16:50:22;43.67;;;28.57;;
38379;SDS011;38377;47.418;18.882;2023-02-15T16:52:55;44.17;;;28.87;;
38379;SDS011;38377;47.418;18.882;2023-02-15T16:55:23;53.20;;;29.37;;
38379;SDS011;38377;47.418;18.882;2023-02-15T17:00:25;55.05;;;29.83;;
38379;SDS011;38377;47.418;18.882;2023-02-15T17:02:59;56.47;;;33.17;;
38379;SDS011;38377;47.418;18.882;2023-02-15T17:05:33;47.93;;;30.77;;
38379;SDS011;38377;47.418;18.882;2023-02-15T17:13:39;62.33;;;37.67;;
38379;SDS011;38377;47.418;18.882;2023-02-15T17:16:43;68.50;;;38.20;;
38379;SDS011;38377;47.418;18.882;2023-02-15T17:19:33;65.70;;;39.70;;
38379;SDS011;38377;47.418;18.882;2023-02-15T17:22:14;56.93;;;34.63;;
38379;SDS011;38377;47.418;18.882;2023-02-15T17:24:44;58.20;;;34.90;;
38379;SDS011;38377;47.418;18.882;2023-02-15T17:27:18;65.23;;;38.43;;
38379;SDS011;38377;47.418;18.882;2023-02-15T17:30:04;65.60;;;36.43;;
38379;SDS011;38377;47.418;18.882;2023-02-15T17:32:51;62.03;;;37.57;;
38379;SDS011;38377;47.418;18.882;2023-02-15T17:35:19;70.17;;;41.07;;
38379;SDS011;38377;47.418;18.882;2023-02-15T17:38:02;71.03;;;40.47;;
38379;SDS011;38377;47.418;18.882;2023-02-15T17:40:40;68.87;;;40.03;;
38379;SDS011;38377;47.418;18.882;2023-02-15T17:43:06;70.40;;;41.40;;
38379;SDS011;38377;47.418;18.882;2023-02-15T17:45:32;72.97;;;43.97;;
38379;SDS011;38377;47.418;18.882;2023-02-15T17:48:04;73.07;;;43.10;;
38379;SDS011;38377;47.418;18.882;2023-02-15T17:50:31;72.33;;;42.83;;
38379;SDS011;38377;47.418;18.882;2023-02-15T17:52:57;74.70;;;45.63;;
38379;SDS011;38377;47.418;18.882;2023-02-15T17:55:25;76.20;;;44.80;;
38379;SDS011;38377;47.418;18.882;2023-02-15T17:58:00;74.17;;;44.20;;
38379;SDS011;38377;47.418;18.882;2023-02-15T18:00:28;81.00;;;42.83;;
38379;SDS011;38377;47.418;18.882;2023-02-15T18:03:13;82.53;;;46.40;;
38379;SDS011;38377;47.418;18.882;2023-02-15T18:05:57;74.57;;;45.03;;
38379;SDS011;38377;47.418;18.882;2023-02-15T18:08:42;77.97;;;45.20;;
38379;SDS011;38377;47.418;18.882;2023-02-15T18:11:26;72.93;;;43.37;;
38379;SDS011;38377;47.418;18.882;2023-02-15T18:14:08;69.20;;;41.27;;
38379;SDS011;38377;47.418;18.882;2023-02-15T18:16:38;77.22;;;45.95;;
38379;SDS011;38377;47.418;18.882;2023-02-15T18:19:17;69.87;;;41.57;;